首页
METAR-TAF:

METAR-TAF

机场 :

尼姆, 法国

纬度: 43-45N, 经度: 004-25E, 海拔: 94米

当前天气观测

该预报发布于31分钟前的10:00 UTC
风速10节,风向
温度 14°C
湿度 67%
气压 1017 hPa
能見度: 9000

METAR: LFTW 051000Z AUTO 36010KT 9000 NSC 14/08 Q1017 NOSIG

时间: 11:31 (10:31 UTC)

预报

该预报发布于2小时和31分钟前的08:00 UTC
预报有效从05日的 09点(UTC)到 06日的 09点(UTC)
风速10节,风向
能见度10公里或以上
1500米以下无云,无积雨云
成为
从 06日的 05点(UTC)到 06日的 07点(UTC)
多云层高于2800英尺

TAF: LFTW 050800Z 0509/0609 36010KT CAVOK BECMG 0605/0607 BKN028

超过4000个机场的气象观测和天气预报(METAR&TAF报告)。

可查询的气象台以黄色和红色小点在地图上表示。

将鼠标移到小点上方,可查看气象台名称。

然后点击查看天气观测和预报。

如需切换地图:点击带黑十字的绿色按钮放大地图;点击带横线的绿色按钮缩小地图;或者点击绿色箭头查看邻近地区的地图。


METAR-TAF: